Time;durP1;ratioP1;P1;durP2;ratioP2;P2;SDS_P1;SDS_P2;PMS_P1;PMS_P2;Temp;Humidity;BMP_temperature;BMP_pressure;BME280_temperature;BME280_humidity;BME280_pressure;Samples;Min_cycle;Max_cycle;Signal;HPM_P1;HPM_P2
2022/02/26 00:01:05;;;;;;;17.27;8.90;;;;;;;-0.90;61.46;99186.00;5050277;28;20420;-74
2022/02/26 00:03:31;;;;;;;21.20;9.37;;;;;;;-0.90;61.50;99187.88;5047737;28;20076;-76
2022/02/26 00:05:57;;;;;;;19.23;9.63;;;;;;;-0.88;61.47;99183.13;5049623;28;20041;-74
2022/02/26 00:08:23;;;;;;;17.90;9.10;;;;;;;-1.02;61.39;99161.72;5046968;28;20338;-75
2022/02/26 00:10:49;;;;;;;21.13;9.73;;;;;;;-0.87;61.21;99187.44;5048376;28;20045;-75
2022/02/26 00:13:15;;;;;;;16.90;8.70;;;;;;;-0.89;61.25;99173.44;5049811;28;20049;-75
2022/02/26 00:15:42;;;;;;;17.87;9.27;;;;;;;-0.84;61.36;99191.56;5047345;28;20048;-75
2022/02/26 00:18:08;;;;;;;19.07;8.37;;;;;;;-0.89;61.79;99192.22;5049322;28;20049;-75
2022/02/26 00:20:35;;;;;;;17.27;9.53;;;;;;;-0.90;61.38;99177.97;5064578;28;20049;-75
2022/02/26 00:23:01;;;;;;;16.90;8.63;;;;;;;-0.88;61.55;99185.81;5047406;28;20342;-75
2022/02/26 00:25:27;;;;;;;17.33;8.43;;;;;;;-0.89;61.49;99205.63;5042039;28;20045;-75
2022/02/26 00:27:53;;;;;;;18.60;8.50;;;;;;;-0.95;61.84;99195.75;5047366;28;20132;-74
2022/02/26 00:30:21;;;;;;;19.50;8.23;;;;;;;-0.95;62.03;99198.41;5048807;28;20477;-74
2022/02/26 00:32:47;;;;;;;21.13;9.37;;;;;;;-0.91;61.79;99195.09;5049221;28;20041;-74
2022/02/26 00:35:15;;;;;;;20.15;9.55;;;;;;;-1.00;62.11;99193.72;5047216;28;20079;-73
2022/02/26 00:37:41;;;;;;;16.47;8.10;;;;;;;-1.07;62.43;99180.31;5045941;28;20254;-74
2022/02/26 00:40:08;;;;;;;19.97;9.23;;;;;;;-0.98;62.12;99194.31;5046115;28;20311;-67
2022/02/26 00:42:35;;;;;;;17.52;8.25;;;;;;;-0.92;62.09;99198.03;5061435;28;20045;-68
2022/02/26 00:45:01;;;;;;;17.47;8.13;;;;;;;-0.95;62.30;99187.69;5045772;28;20570;-67
2022/02/26 00:47:29;;;;;;;16.53;8.43;;;;;;;-0.95;62.27;99201.94;5042862;28;20044;-67
2022/02/26 00:49:56;;;;;;;20.37;9.20;;;;;;;-0.92;61.97;99198.03;5049191;28;20053;-66
2022/02/26 00:52:28;;;;;;;16.33;8.33;;;;;;;-1.00;62.27;99194.53;5039828;28;20041;-73
2022/02/26 00:54:54;;;;;;;17.67;8.80;;;;;;;-1.02;62.76;99195.75;5045692;28;20060;-67
2022/02/26 00:57:21;;;;;;;22.58;9.32;;;;;;;-0.99;62.60;99190.00;5053403;28;20048;-67
2022/02/26 00:59:47;;;;;;;17.43;9.13;;;;;;;-0.98;62.34;99188.13;5047059;28;20045;-73
2022/02/26 01:02:14;;;;;;;21.10;8.73;;;;;;;-1.02;62.67;99198.44;5043905;28;20053;-76
2022/02/26 01:04:41;;;;;;;17.03;7.90;;;;;;;-1.04;62.43;99184.44;5047343;28;20056;-76
2022/02/26 01:07:08;;;;;;;17.10;8.87;;;;;;;-1.08;62.72;99184.06;5030762;28;20052;-76
2022/02/26 01:09:35;;;;;;;17.40;8.67;;;;;;;-0.98;62.59;99199.69;5042914;28;20053;-76
2022/02/26 01:12:02;;;;;;;16.77;7.93;;;;;;;-0.99;62.57;99203.41;5047409;28;20405;-76
2022/02/26 01:14:28;;;;;;;17.98;8.75;;;;;;;-0.95;62.69;99198.41;5047971;28;20052;-76
2022/02/26 01:16:54;;;;;;;15.27;7.77;;;;;;;-1.09;63.04;99200.34;5038606;28;20041;-76
2022/02/26 01:19:20;;;;;;;15.70;8.33;;;;;;;-1.05;62.95;99191.66;5039646;28;20060;-76
2022/02/26 01:21:46;;;;;;;16.83;8.47;;;;;;;-1.08;63.02;99204.69;5046949;28;20132;-76
2022/02/26 01:24:13;;;;;;;14.33;8.10;;;;;;;-0.98;62.82;99198.84;5049130;28;20537;-76
2022/02/26 01:26:39;;;;;;;17.20;9.17;;;;;;;-0.98;62.82;99202.38;5048504;28;20055;-76
2022/02/26 01:29:06;;;;;;;17.48;8.73;;;;;;;-1.03;63.01;99196.81;5030148;28;20057;-76
2022/02/26 01:31:33;;;;;;;18.30;9.65;;;;;;;-0.98;62.75;99205.06;5026227;28;20045;-76
2022/02/26 01:34:02;;;;;;;18.50;9.02;;;;;;;-1.00;62.81;99199.91;5048453;28;20420;-76
2022/02/26 01:36:28;;;;;;;19.02;9.05;;;;;;;-0.93;62.65;99196.38;5047672;28;20055;-76
2022/02/26 01:38:54;;;;;;;18.43;9.00;;;;;;;-1.04;62.57;99204.06;5046518;28;20053;-76
2022/02/26 01:41:21;;;;;;;16.98;8.77;;;;;;;-1.16;63.46;99205.75;5031318;28;20128;-76
2022/02/26 01:43:48;;;;;;;17.53;8.73;;;;;;;-1.04;63.03;99201.38;5042714;28;20539;-75
2022/02/26 01:46:15;;;;;;;18.90;9.15;;;;;;;-1.07;63.15;99209.84;5043104;28;20053;-75
2022/02/26 01:48:41;;;;;;;21.07;9.67;;;;;;;-0.98;62.71;99204.22;5033941;28;20063;-75
2022/02/26 01:51:09;;;;;;;19.03;9.10;;;;;;;-0.92;62.81;99198.81;5048195;28;20053;-76
2022/02/26 01:53:36;;;;;;;18.63;9.03;;;;;;;-0.91;62.75;99205.84;5044592;28;20127;-76
2022/02/26 01:56:04;;;;;;;18.35;8.75;;;;;;;-0.96;62.99;99199.47;5046126;28;20084;-76
2022/02/26 01:58:30;;;;;;;17.75;9.13;;;;;;;-0.90;62.87;99198.63;5047927;28;20057;-75
2022/02/26 02:00:57;;;;;;;18.70;8.17;;;;;;;-0.93;62.78;99175.72;5023785;28;20461;-76
2022/02/26 02:03:24;;;;;;;20.15;8.70;;;;;;;-0.92;62.83;99203.38;5041426;28;20045;-76
2022/02/26 02:05:50;;;;;;;19.43;9.37;;;;;;;-0.89;62.84;99209.13;5046855;28;20056;-76
2022/02/26 02:08:16;;;;;;;19.53;8.87;;;;;;;-0.79;62.58;99215.91;5060151;28;20049;-77
2022/02/26 02:10:43;;;;;;;15.53;7.97;;;;;;;-0.84;62.91;99223.78;5041880;28;20057;-77
2022/02/26 02:13:09;;;;;;;17.87;8.93;;;;;;;-0.83;62.75;99210.13;5050111;28;20048;-76
2022/02/26 02:15:38;;;;;;;17.77;8.80;;;;;;;-0.85;62.89;99220.28;5044609;28;20091;-77
2022/02/26 02:18:06;;;;;;;20.83;8.53;;;;;;;-0.81;62.97;99207.25;5048732;28;20052;-76
2022/02/26 02:20:33;;;;;;;18.97;8.33;;;;;;;-0.83;62.89;99214.69;5007660;28;20047;-76
2022/02/26 02:22:59;;;;;;;17.27;9.30;;;;;;;-0.81;62.86;99207.25;5050931;28;20094;-76
2022/02/26 02:25:28;;;;;;;18.23;8.68;;;;;;;-0.97;63.37;99221.97;5050132;28;20136;-76
2022/02/26 02:27:55;;;;;;;15.97;7.97;;;;;;;-0.95;63.36;99218.06;5049408;28;20148;-76
2022/02/26 02:30:21;;;;;;;15.97;8.97;;;;;;;-0.88;63.29;99223.38;5050338;28;20053;-76
2022/02/26 02:32:48;;;;;;;21.00;9.23;;;;;;;-0.85;62.99;99228.31;5029566;28;20299;-77
2022/02/26 02:35:26;;;;;;;21.63;9.97;;;;;;;-0.79;62.84;99222.09;5049155;28;20053;-76
2022/02/26 02:37:54;;;;;;;18.33;9.53;;;;;;;-0.82;62.89;99229.78;5045965;28;20468;-77
2022/02/26 02:40:21;;;;;;;17.53;8.73;;;;;;;-0.81;62.91;99226.84;5051366;28;20040;-77
2022/02/26 02:42:47;;;;;;;18.83;9.23;;;;;;;-0.87;63.15;99217.78;5048204;28;20061;-77
2022/02/26 02:45:13;;;;;;;18.50;9.30;;;;;;;-0.91;63.25;99230.00;5047908;28;20106;-76
2022/02/26 02:47:39;;;;;;;16.97;8.40;;;;;;;-1.00;63.31;99210.63;5062613;28;20045;-77
2022/02/26 02:50:07;;;;;;;17.27;8.60;;;;;;;-0.89;63.17;99219.06;5047495;28;20049;-76
2022/02/26 02:52:33;;;;;;;17.33;8.65;;;;;;;-0.84;63.03;99215.75;5065604;28;20569;-77
2022/02/26 02:54:59;;;;;;;25.13;9.60;;;;;;;-0.86;63.12;99230.19;5049573;28;20136;-77
2022/02/26 02:57:26;;;;;;;17.17;9.20;;;;;;;-0.81;63.17;99226.03;5042681;28;20063;-76
2022/02/26 02:59:52;;;;;;;17.55;9.10;;;;;;;-0.84;63.10;99224.59;5032678;28;20061;-76
2022/02/26 03:02:19;;;;;;;17.27;8.40;;;;;;;-0.86;63.27;99237.41;5046673;28;20056;-76
2022/02/26 03:04:45;;;;;;;18.63;9.03;;;;;;;-0.89;63.40;99230.59;5046522;28;20063;-75
2022/02/26 03:07:11;;;;;;;19.20;9.13;;;;;;;-0.91;63.43;99219.25;5045929;28;20055;-76
2022/02/26 03:09:38;;;;;;;21.45;9.35;;;;;;;-0.88;63.40;99221.50;5048428;28;20041;-76
2022/02/26 03:12:06;;;;;;;18.77;9.30;;;;;;;-1.02;63.93;99231.50;5049617;28;20067;-76
2022/02/26 03:14:33;;;;;;;19.77;9.20;;;;;;;-0.96;63.91;99227.13;5045888;28;20045;-76
2022/02/26 03:17:00;;;;;;;19.15;9.27;;;;;;;-0.98;63.87;99225.69;5045110;28;20103;-76
2022/02/26 03:19:26;;;;;;;15.13;8.33;;;;;;;-0.94;63.72;99229.59;5030087;28;20064;-76
2022/02/26 03:21:52;;;;;;;18.37;8.77;;;;;;;-0.90;63.62;99233.53;5048426;28;20052;-76
2022/02/26 03:24:18;;;;;;;18.73;9.23;;;;;;;-0.83;63.42;99239.66;5049368;28;20420;-73
2022/02/26 03:26:44;;;;;;;17.40;8.60;;;;;;;-0.93;63.67;99237.44;5047783;28;20317;-73
2022/02/26 03:29:10;;;;;;;18.40;8.73;;;;;;;-0.97;63.88;99238.06;5049365;28;20132;-74
2022/02/26 03:31:38;;;;;;;18.63;8.77;;;;;;;-0.92;63.73;99252.50;5046265;28;20057;-73
2022/02/26 03:34:05;;;;;;;18.70;8.67;;;;;;;-0.82;63.41;99252.06;5051781;28;20045;-72
2022/02/26 03:36:34;;;;;;;18.25;8.73;;;;;;;-0.78;63.31;99247.09;5045872;28;20136;-73
2022/02/26 03:39:00;;;;;;;18.90;8.90;;;;;;;-0.87;62.89;99228.53;5042258;28;20064;-72
2022/02/26 03:41:27;;;;;;;27.67;9.10;;;;;;;-0.78;63.09;99264.03;5037115;28;20045;-72
2022/02/26 03:43:54;;;;;;;20.10;9.20;;;;;;;-0.74;63.22;99267.09;5043250;28;20049;-73
2022/02/26 03:46:20;;;;;;;17.83;8.67;;;;;;;-0.77;63.23;99275.59;5049589;28;20343;-73
2022/02/26 03:48:47;;;;;;;18.30;8.57;;;;;;;-0.80;63.29;99271.44;5041303;28;20058;-72
2022/02/26 03:51:14;;;;;;;21.60;8.63;;;;;;;-0.77;63.29;99271.06;5046791;28;20148;-72
2022/02/26 03:53:41;;;;;;;16.83;7.67;;;;;;;-0.75;63.21;99268.97;5050399;28;20048;-72
2022/02/26 03:56:07;;;;;;;17.27;8.27;;;;;;;-0.82;63.10;99241.31;5049894;28;20098;-73
2022/02/26 03:58:34;;;;;;;17.97;9.17;;;;;;;-0.66;63.06;99274.91;5046678;28;20102;-74
2022/02/26 04:01:00;;;;;;;18.57;8.90;;;;;;;-0.67;62.93;99270.59;5048823;28;20072;-74
2022/02/26 04:03:26;;;;;;;19.90;9.10;;;;;;;-0.72;63.27;99281.97;5047257;28;20063;-73
2022/02/26 04:05:53;;;;;;;19.53;9.57;;;;;;;-0.70;63.24;99280.94;5044315;28;20080;-73
2022/02/26 04:08:19;;;;;;;18.00;9.05;;;;;;;-0.72;63.34;99300.75;5029514;28;20045;-73
2022/02/26 04:10:45;;;;;;;19.53;8.87;;;;;;;-0.68;63.27;99303.84;5047999;28;20052;-73
2022/02/26 04:13:12;;;;;;;20.50;8.50;;;;;;;-0.69;63.29;99301.38;5049596;28;20060;-73
2022/02/26 04:15:38;;;;;;;18.43;8.80;;;;;;;-0.70;63.44;99305.09;5046649;28;20087;-73
2022/02/26 04:18:05;;;;;;;18.03;8.90;;;;;;;-0.68;63.07;99295.78;5048611;28;20052;-68
2022/02/26 04:20:31;;;;;;;16.03;8.30;;;;;;;-0.62;63.11;99294.94;5042093;28;20047;-68
2022/02/26 04:22:57;;;;;;;16.87;8.57;;;;;;;-0.67;63.04;99300.13;5055131;28;20147;-66
2022/02/26 04:25:24;;;;;;;19.43;8.93;;;;;;;-0.74;63.47;99302.84;5063007;28;20131;-68
2022/02/26 04:27:50;;;;;;;16.23;8.67;;;;;;;-0.75;63.27;99306.56;5042175;28;20049;-66
2022/02/26 04:30:16;;;;;;;18.13;9.73;;;;;;;-0.69;63.34;99304.06;5044930;28;20493;-68
2022/02/26 04:32:42;;;;;;;19.30;9.63;;;;;;;-0.68;63.34;99311.06;5044269;28;20041;-68
2022/02/26 04:35:09;;;;;;;16.57;8.13;;;;;;;-0.83;63.42;99285.31;5048789;28;20103;-67
2022/02/26 04:37:36;;;;;;;18.70;9.43;;;;;;;-0.84;63.81;99310.50;5049617;28;20045;-69
2022/02/26 04:40:03;;;;;;;18.07;8.47;;;;;;;-0.84;64.16;99317.75;5047711;28;20094;-68
2022/02/26 04:42:30;;;;;;;17.13;8.77;;;;;;;-0.94;64.47;99313.63;5048674;28;20049;-68
2022/02/26 04:44:56;;;;;;;19.43;9.17;;;;;;;-0.93;64.49;99328.72;5048098;28;20080;-68
2022/02/26 04:47:22;;;;;;;26.37;9.53;;;;;;;-0.92;64.63;99330.34;5049266;28;20489;-68
2022/02/26 04:49:48;;;;;;;17.63;8.67;;;;;;;-0.71;63.93;99320.38;5047946;28;20099;-68
2022/02/26 04:52:14;;;;;;;22.17;9.80;;;;;;;-0.69;64.04;99322.84;5030726;28;20052;-68
2022/02/26 04:54:41;;;;;;;22.47;9.70;;;;;;;-0.49;63.46;99320.91;5044125;28;20536;-68
2022/02/26 04:57:07;;;;;;;19.37;8.83;;;;;;;-0.50;63.40;99321.13;5045898;28;20064;-67
2022/02/26 04:59:34;;;;;;;22.87;9.00;;;;;;;-0.63;63.76;99332.72;5047291;28;20037;-69
2022/02/26 05:02:00;;;;;;;18.57;9.43;;;;;;;-0.57;63.67;99332.72;5042254;28;20315;-68
2022/02/26 05:04:26;;;;;;;18.40;8.20;;;;;;;-0.61;63.63;99325.31;5048630;28;20079;-69
2022/02/26 05:06:52;;;;;;;18.20;8.47;;;;;;;-0.54;63.61;99336.03;5046433;28;20049;-69
2022/02/26 05:09:18;;;;;;;18.63;8.60;;;;;;;-0.62;63.57;99337.91;5048011;28;20057;-68
2022/02/26 05:11:45;;;;;;;23.80;9.33;;;;;;;-0.63;63.69;99347.00;5048571;28;20110;-68
2022/02/26 05:14:12;;;;;;;16.95;8.25;;;;;;;-0.61;63.63;99347.59;5044427;28;20049;-69
2022/02/26 05:16:38;;;;;;;;;;;;;;;-0.72;64.13;99362.53;5050004;28;20136;-69
2022/02/26 05:19:04;;;;;;;18.77;9.30;;;;;;;-0.76;64.33;99353.25;5046880;28;20027;-68
2022/02/26 05:21:30;;;;;;;23.10;9.63;;;;;;;-0.76;64.40;99358.63;5038397;28;20065;-68
2022/02/26 05:23:57;;;;;;;16.43;8.70;;;;;;;-0.68;64.46;99362.09;5039500;28;20076;-68
2022/02/26 05:26:23;;;;;;;18.00;8.53;;;;;;;-0.61;64.23;99360.22;5047555;28;20053;-67
2022/02/26 05:28:49;;;;;;;18.20;9.10;;;;;;;-0.55;63.96;99358.53;5039267;28;20100;-69
2022/02/26 05:31:16;;;;;;;19.33;8.90;;;;;;;-0.38;63.52;99348.13;5044552;28;20540;-68
2022/02/26 05:33:42;;;;;;;16.80;8.60;;;;;;;-0.24;63.31;99363.16;5034623;28;20114;-68
2022/02/26 05:36:08;;;;;;;23.23;9.33;;;;;;;-0.18;63.16;99358.78;5048158;28;20307;-68
2022/02/26 05:38:34;;;;;;;21.50;8.67;;;;;;;-0.15;63.21;99367.25;5047940;28;20620;-68
2022/02/26 05:41:00;;;;;;;17.60;8.83;;;;;;;-0.22;63.48;99358.38;5046700;28;20049;-68
2022/02/26 05:43:26;;;;;;;22.17;8.10;;;;;;;-0.31;63.74;99367.75;5044410;28;20053;-71
2022/02/26 05:45:53;;;;;;;18.60;8.27;;;;;;;-0.32;63.94;99377.66;5040892;28;20052;-72
2022/02/26 05:48:19;;;;;;;15.87;7.60;;;;;;;-0.38;63.83;99364.25;5044275;28;20045;-69
2022/02/26 05:50:45;;;;;;;17.15;7.45;;;;;;;-0.21;63.69;99376.16;5044881;28;20045;-69
2022/02/26 05:53:12;;;;;;;20.52;8.52;;;;;;;-0.15;63.63;99386.06;5035453;28;20050;-69
2022/02/26 05:55:38;;;;;;;16.67;7.90;;;;;;;-0.08;63.23;99371.75;5043289;28;20061;-67
2022/02/26 05:58:04;;;;;;;16.90;7.63;;;;;;;0.09;62.84;99386.34;5036148;28;20057;-67
2022/02/26 06:00:30;;;;;;;14.83;7.33;;;;;;;0.11;62.88;99386.94;5051450;28;20528;-68
2022/02/26 06:02:56;;;;;;;17.92;7.93;;;;;;;0.26;62.55;99401.97;5052647;28;20107;-68
2022/02/26 06:05:23;;;;;;;18.85;8.25;;;;;;;0.09;63.09;99412.41;5052154;28;20052;-68
2022/02/26 06:07:49;;;;;;;15.48;8.05;;;;;;;0.04;63.31;99409.53;5038243;28;20057;-68
2022/02/26 06:10:15;;;;;;;21.58;7.75;;;;;;;-0.03;63.45;99402.34;5041028;28;20059;-68
2022/02/26 06:12:41;;;;;;;18.20;8.25;;;;;;;-0.03;63.66;99410.41;5050219;28;20049;-68
2022/02/26 06:15:08;;;;;;;16.92;9.02;;;;;;;0.07;63.46;99423.38;5040803;28;20049;-72
2022/02/26 06:17:36;;;;;;;18.50;8.40;;;;;;;0.11;63.15;99424.59;5040161;28;20045;-72
2022/02/26 06:20:02;;;;;;;17.55;8.32;;;;;;;0.15;63.21;99427.69;5031590;28;20471;-71
2022/02/26 06:22:30;;;;;;;20.17;8.80;;;;;;;0.23;63.07;99429.28;5046224;28;20441;-72
2022/02/26 06:24:56;;;;;;;15.07;8.05;;;;;;;0.27;62.92;99425.97;5052907;28;20416;-72
2022/02/26 06:27:22;;;;;;;19.02;9.13;;;;;;;0.36;62.66;99429.22;5051705;28;20061;-71
2022/02/26 06:29:48;;;;;;;17.27;8.48;;;;;;;0.36;62.76;99439.13;5047057;28;20045;-72
2022/02/26 06:32:14;;;;;;;18.38;8.45;;;;;;;0.41;62.63;99442.03;5047722;28;20136;-72
2022/02/26 06:34:40;;;;;;;19.45;8.48;;;;;;;0.39;62.64;99449.47;5051666;28;20389;-72
2022/02/26 06:37:06;;;;;;;16.27;8.13;;;;;;;0.30;62.73;99419.31;5046514;28;20110;-72
2022/02/26 06:39:33;;;;;;;18.33;8.52;;;;;;;0.34;63.08;99454.69;5035835;28;20046;-72
2022/02/26 06:41:59;;;;;;;16.80;8.00;;;;;;;0.35;63.12;99459.84;5047476;28;20473;-72
2022/02/26 06:44:25;;;;;;;17.10;9.00;;;;;;;0.50;62.76;99454.16;5047081;28;20053;-72
2022/02/26 06:46:52;;;;;;;17.85;8.27;;;;;;;0.52;62.66;99457.44;5050857;28;20049;-72
2022/02/26 06:49:18;;;;;;;17.60;8.95;;;;;;;0.58;62.31;99460.34;5042814;28;20052;-72
2022/02/26 06:51:44;;;;;;;14.85;7.93;;;;;;;0.59;62.69;99461.97;5039551;28;20492;-72
2022/02/26 06:54:10;;;;;;;19.27;8.70;;;;;;;0.67;62.48;99469.78;5036428;28;20068;-72
2022/02/26 06:56:37;;;;;;;16.58;8.80;;;;;;;0.69;62.42;99473.06;5034241;28;20072;-73
2022/02/26 06:59:03;;;;;;;20.73;8.75;;;;;;;0.71;62.60;99473.72;5044528;28;20049;-73
2022/02/26 07:01:29;;;;;;;21.13;9.38;;;;;;;0.78;62.33;99473.63;5051117;28;20544;-73
2022/02/26 07:03:56;;;;;;;19.83;8.25;;;;;;;0.81;62.23;99465.94;5050992;28;20060;-73
2022/02/26 07:06:21;;;;;;;15.75;8.20;;;;;;;0.84;62.19;99470.88;5048326;28;20072;-73
2022/02/26 07:08:48;;;;;;;18.08;8.75;;;;;;;0.93;62.02;99467.94;5049660;28;20099;-73
2022/02/26 07:11:14;;;;;;;19.20;9.20;;;;;;;0.97;61.93;99467.28;5050868;28;20072;-72
2022/02/26 07:13:41;;;;;;;17.05;8.65;;;;;;;1.06;61.76;99473.22;5052220;28;20069;-73
2022/02/26 07:16:07;;;;;;;21.17;8.57;;;;;;;1.08;61.71;99478.38;5050813;28;20540;-73
2022/02/26 07:18:33;;;;;;;21.80;8.57;;;;;;;1.11;61.79;99480.66;5046571;28;20315;-72
2022/02/26 07:20:59;;;;;;;18.48;8.73;;;;;;;1.08;61.75;99486.44;5045299;28;20517;-72
2022/02/26 07:23:25;;;;;;;21.30;8.90;;;;;;;1.14;61.60;99485.59;5044499;28;20143;-72
2022/02/26 07:25:51;;;;;;;20.55;9.35;;;;;;;1.19;61.64;99491.13;5050069;28;20525;-72
2022/02/26 07:28:17;;;;;;;20.48;8.60;;;;;;;1.24;61.57;99496.66;5046875;28;20144;-73
2022/02/26 07:30:44;;;;;;;18.23;8.93;;;;;;;1.33;61.39;99501.78;5048672;28;20160;-73
2022/02/26 07:33:10;;;;;;;24.10;9.93;;;;;;;1.35;61.06;99503.22;5048495;28;20059;-73
2022/02/26 07:35:36;;;;;;;24.02;8.95;;;;;;;1.38;61.16;99504.63;5044845;28;20103;-73
2022/02/26 07:38:03;;;;;;;27.42;9.50;;;;;;;1.39;61.19;99498.19;5031043;28;20045;-74
2022/02/26 07:40:30;;;;;;;27.10;9.68;;;;;;;1.41;61.35;99504.22;5035033;28;20525;-73
2022/02/26 07:42:56;;;;;;;17.60;9.43;;;;;;;1.39;61.28;99511.66;5032134;28;20525;-73
2022/02/26 07:45:22;;;;;;;21.70;9.23;;;;;;;1.39;61.28;99506.28;5046461;28;20060;-73
2022/02/26 07:47:49;;;;;;;18.10;8.20;;;;;;;1.44;61.27;99509.16;5048842;28;20049;-73
2022/02/26 07:50:15;;;;;;;18.27;8.65;;;;;;;1.49;61.18;99516.59;5060656;28;20052;-76
2022/02/26 07:52:42;;;;;;;18.77;9.65;;;;;;;1.50;61.20;99524.44;5026824;28;20059;-75
2022/02/26 07:55:09;;;;;;;24.20;9.68;;;;;;;1.52;61.29;99525.03;5046755;28;20493;-76
2022/02/26 07:57:35;;;;;;;19.95;9.07;;;;;;;1.58;61.05;99522.50;5049423;28;20049;-75
2022/02/26 08:00:03;;;;;;;27.60;9.38;;;;;;;1.59;61.14;99524.97;5043771;28;20469;-76
2022/02/26 08:02:34;;;;;;;21.63;9.43;;;;;;;1.69;60.81;99519.06;5043931;28;20043;-76
2022/02/26 08:05:01;;;;;;;20.92;9.50;;;;;;;1.82;60.47;99524.31;5049574;28;20053;-75
2022/02/26 08:07:27;;;;;;;16.55;8.80;;;;;;;1.76;60.60;99530.63;5048135;28;20045;-76
2022/02/26 08:09:53;;;;;;;24.98;9.05;;;;;;;1.65;60.79;99532.19;5036731;28;20140;-76
2022/02/26 08:12:19;;;;;;;20.67;9.80;;;;;;;1.69;60.91;99532.53;5033730;28;20099;-76
2022/02/26 08:14:45;;;;;;;18.45;9.32;;;;;;;1.71;60.94;99533.13;5047952;28;20052;-75
2022/02/26 08:17:12;;;;;;;22.17;9.38;;;;;;;1.73;60.90;99533.75;5046420;28;20489;-76
2022/02/26 08:19:38;;;;;;;29.02;9.43;;;;;;;1.77;60.74;99532.25;5013482;28;20152;-76
2022/02/26 08:22:06;;;;;;;20.83;9.40;;;;;;;1.78;60.86;99538.47;5040081;28;20056;-76
2022/02/26 08:24:32;;;;;;;20.20;8.88;;;;;;;1.86;60.72;99537.34;5046155;28;20479;-76
2022/02/26 08:26:58;;;;;;;19.10;8.95;;;;;;;1.77;60.43;99515.25;5049822;28;20049;-76
2022/02/26 08:29:25;;;;;;;25.33;9.88;;;;;;;1.88;60.52;99544.16;5047532;28;20045;-76
2022/02/26 08:31:51;;;;;;;23.63;10.38;;;;;;;1.78;60.66;99539.31;5028532;28;20048;-76
2022/02/26 08:34:17;;;;;;;20.92;9.65;;;;;;;1.93;60.63;99551.59;5044208;28;20056;-75
2022/02/26 08:36:44;;;;;;;22.75;10.23;;;;;;;1.92;60.78;99547.25;5053286;28;20732;-76
2022/02/26 08:39:11;;;;;;;20.60;9.43;;;;;;;1.96;60.48;99551.97;5030575;28;20045;-76
2022/02/26 08:41:37;;;;;;;19.77;9.20;;;;;;;1.86;61.02;99545.44;5051902;28;20053;-77
2022/02/26 08:44:04;;;;;;;19.38;8.95;;;;;;;2.01;60.68;99542.38;5031385;28;20106;-76
2022/02/26 08:46:29;;;;;;;20.13;8.57;;;;;;;1.89;60.92;99545.00;5049850;28;20040;-77
2022/02/26 08:48:57;;;;;;;23.95;9.25;;;;;;;1.93;60.70;99554.28;5049727;28;20048;-76
2022/02/26 08:51:23;;;;;;;25.63;11.02;;;;;;;2.03;60.71;99543.81;5041151;28;20059;-75
2022/02/26 08:53:49;;;;;;;18.92;8.88;;;;;;;2.03;60.39;99548.38;5047959;28;20501;-76
2022/02/26 08:56:15;;;;;;;16.42;8.50;;;;;;;2.06;60.41;99550.63;5045488;28;20048;-76
2022/02/26 08:58:42;;;;;;;20.43;9.57;;;;;;;2.06;60.27;99550.63;5038597;28;20064;-76
2022/02/26 09:01:08;;;;;;;19.05;8.93;;;;;;;2.11;60.35;99554.28;5038841;28;20048;-75
2022/02/26 09:03:35;;;;;;;16.92;7.82;;;;;;;2.05;60.50;99552.50;5051907;28;20049;-75
2022/02/26 09:06:01;;;;;;;17.67;8.07;;;;;;;2.15;60.35;99553.84;5046465;28;20103;-75
2022/02/26 09:08:27;;;;;;;21.98;8.85;;;;;;;2.14;60.35;99547.63;5027533;28;20199;-76
2022/02/26 09:10:53;;;;;;;18.77;8.35;;;;;;;2.22;60.36;99550.00;5036838;28;20057;-75
2022/02/26 09:13:20;;;;;;;17.77;8.85;;;;;;;2.08;60.47;99545.81;5042203;28;20053;-77
2022/02/26 09:15:46;;;;;;;21.60;10.65;;;;;;;2.04;60.73;99553.56;5049629;28;22946;-77
2022/02/26 09:18:13;;;;;;;20.20;8.85;;;;;;;2.18;60.39;99559.63;5050420;28;20515;-77
2022/02/26 09:20:39;;;;;;;20.13;7.70;;;;;;;2.16;60.59;99559.03;5049984;28;20049;-76
2022/02/26 09:23:05;;;;;;;17.08;7.65;;;;;;;2.12;60.66;99555.13;5053932;28;20127;-77
2022/02/26 09:25:31;;;;;;;20.70;8.73;;;;;;;2.20;60.62;99556.72;5051788;28;20472;-77
2022/02/26 09:27:57;;;;;;;20.77;8.07;;;;;;;2.17;60.63;99552.56;5051344;28;20080;-77
2022/02/26 09:30:25;;;;;;;21.35;8.98;;;;;;;2.30;60.30;99558.88;5032447;28;20080;-76
2022/02/26 09:32:52;;;;;;;17.02;8.05;;;;;;;2.32;60.25;99557.56;5033687;28;20529;-77
2022/02/26 09:35:18;;;;;;;20.08;8.30;;;;;;;2.44;60.26;99556.81;5046175;28;20047;-77
2022/02/26 09:37:44;;;;;;;18.92;7.47;;;;;;;2.51;59.98;99552.19;5053914;28;20049;-77
2022/02/26 09:40:10;;;;;;;17.83;7.95;;;;;;;2.51;59.94;99563.78;5049221;28;20140;-77
2022/02/26 09:42:39;;;;;;;19.50;7.95;;;;;;;2.54;59.81;99562.50;5053846;28;20072;-77
2022/02/26 09:45:07;;;;;;;21.10;7.90;;;;;;;2.57;59.88;99566.59;5050606;28;20056;-76
2022/02/26 09:47:33;;;;;;;22.25;8.82;;;;;;;2.59;59.97;99569.94;5051755;28;20053;-76
2022/02/26 09:50:00;;;;;;;16.35;8.00;;;;;;;2.68;59.65;99563.97;5053371;28;20163;-76
2022/02/26 09:52:28;;;;;;;17.52;8.55;;;;;;;2.70;59.67;99574.53;5052840;28;20055;-76
2022/02/26 09:54:54;;;;;;;20.10;7.95;;;;;;;2.76;59.76;99567.41;5052126;28;20044;-76
2022/02/26 09:57:21;;;;;;;15.55;7.53;;;;;;;2.77;59.62;99574.44;5053258;28;20110;-77
2022/02/26 09:59:48;;;;;;;25.67;8.00;;;;;;;2.77;59.77;99574.44;5053167;28;20051;-77
2022/02/26 10:02:14;;;;;;;19.92;7.93;;;;;;;2.92;59.35;99569.47;5052409;28;20052;-76
2022/02/26 10:04:53;;;;;;;24.35;7.05;;;;;;;2.94;59.30;99572.75;5053134;28;20091;-76
2022/02/26 10:07:22;;;;;;;21.65;7.82;;;;;;;3.01;59.15;99577.25;5053060;28;20049;-76
2022/02/26 10:09:48;;;;;;;18.52;6.82;;;;;;;2.95;59.04;99570.88;5053055;28;20040;-76
2022/02/26 10:12:24;;;;;;;16.67;7.30;;;;;;;2.99;59.25;99566.66;5052645;28;20111;-77
2022/02/26 10:14:51;;;;;;;16.08;7.55;;;;;;;2.98;58.97;99571.25;5050875;28;20126;-76
2022/02/26 10:17:25;;;;;;;17.10;8.68;;;;;;;3.00;59.17;99572.91;5053090;28;20049;-77
2022/02/26 10:20:01;;;;;;;16.63;6.07;;;;;;;2.96;58.76;99573.34;5052385;28;20052;-76
2022/02/26 10:22:29;;;;;;;12.57;5.18;;;;;;;2.96;58.90;99575.22;5041686;28;20052;-77
2022/02/26 10:24:55;;;;;;;13.63;5.47;;;;;;;2.97;58.80;99577.72;5051595;28;20045;-76
2022/02/26 10:27:25;;;;;;;16.08;5.90;;;;;;;2.96;58.64;99567.94;5052602;28;20087;-77
2022/02/26 10:29:53;;;;;;;15.45;6.20;;;;;;;2.89;58.64;99561.81;5051964;28;20071;-76
2022/02/26 10:32:20;;;;;;;14.48;5.60;;;;;;;3.04;58.82;99584.88;5031317;28;20041;-75
2022/02/26 10:34:46;;;;;;;15.70;5.55;;;;;;;3.10;58.48;99589.34;5032697;28;20422;-76
2022/02/26 10:37:14;;;;;;;15.57;6.15;;;;;;;3.11;58.33;99591.00;5033004;28;20141;-77
2022/02/26 10:39:46;;;;;;;17.33;6.95;;;;;;;3.09;58.50;99591.25;5048009;28;20053;-76
2022/02/26 10:42:18;;;;;;;16.33;5.88;;;;;;;3.15;58.39;99592.22;5052050;28;20056;-76
2022/02/26 10:44:45;;;;;;;16.52;5.82;;;;;;;3.20;58.42;99599.59;5050853;28;20045;-77
2022/02/26 10:47:13;;;;;;;13.98;5.38;;;;;;;3.21;58.00;99598.56;5052139;28;20120;-76
2022/02/26 10:49:42;;;;;;;12.73;5.18;;;;;;;3.17;58.17;99595.50;5034310;28;20049;-76
2022/02/26 10:52:10;;;;;;;13.20;5.70;;;;;;;3.20;58.15;99603.16;5050234;28;20505;-76
2022/02/26 10:54:41;;;;;;;14.73;5.60;;;;;;;3.22;57.92;99605.63;5034654;28;20045;-76
2022/02/26 10:57:09;;;;;;;13.93;5.72;;;;;;;3.19;58.00;99606.91;5047198;28;20532;-76
2022/02/26 10:59:36;;;;;;;13.25;5.90;;;;;;;3.26;57.78;99610.31;5063831;28;20052;-76
2022/02/26 11:02:05;;;;;;;13.77;5.75;;;;;;;3.29;57.63;99605.53;5049399;28;20114;-76
2022/02/26 11:04:32;;;;;;;12.10;4.82;;;;;;;3.27;57.79;99611.16;5050728;28;20048;-76
2022/02/26 11:06:59;;;;;;;15.93;6.28;;;;;;;3.28;58.13;99610.09;5049331;28;20562;-76
2022/02/26 11:09:26;;;;;;;17.00;5.47;;;;;;;3.30;57.56;99610.69;5046996;28;20515;-74
2022/02/26 11:11:56;;;;;;;14.25;5.70;;;;;;;3.35;57.69;99618.91;5048187;28;20451;-75
2022/02/26 11:14:26;;;;;;;20.13;5.82;;;;;;;3.41;57.43;99622.56;5050372;28;20045;-75
2022/02/26 11:16:53;;;;;;;16.48;6.90;;;;;;;3.44;57.43;99622.13;5051769;28;20080;-76
2022/02/26 11:19:20;;;;;;;18.70;6.30;;;;;;;3.42;57.31;99618.81;5051313;28;20052;-76
2022/02/26 11:21:48;;;;;;;19.60;6.43;;;;;;;3.40;57.45;99624.47;5044962;28;20079;-75
2022/02/26 11:24:15;;;;;;;;;;;;;;;3.25;57.47;99621.38;5049718;28;20533;-74
2022/02/26 11:26:42;;;;;;;17.13;5.35;;;;;;;3.24;57.61;99617.03;5049915;28;19963;-75